Time;durP1;ratioP1;P1;durP2;ratioP2;P2;SDS_P1;SDS_P2;PMS_P1;PMS_P2;Temp;Humidity;BMP_temperature;BMP_pressure;BME280_temperature;BME280_humidity;BME280_pressure;Samples;Min_cycle;Max_cycle;Signal;HPM_P1;HPM_P2
2023/12/07 00:01:08;;;;;;;12.90;9.07;;;;;;;;;;5050423;28;20120;-64
2023/12/07 00:03:34;;;;;;;12.38;8.43;;;;;;;;;;5015735;28;20075;-65
2023/12/07 00:06:00;;;;;;;13.90;9.02;;;;;;;;;;5049977;28;20137;-65
2023/12/07 00:08:26;;;;;;;14.02;9.13;;;;;;;;;;5032482;28;20068;-65
2023/12/07 00:10:52;;;;;;;13.60;8.25;;;;;;;;;;5032389;28;20365;-64
2023/12/07 00:13:18;;;;;;;12.57;8.93;;;;;;;;;;5050059;28;20115;-64
2023/12/07 00:15:45;;;;;;;13.55;9.32;;;;;;;;;;5048322;28;20045;-64
2023/12/07 00:18:11;;;;;;;16.38;9.20;;;;;;;;;;5025515;28;20052;-64
2023/12/07 00:20:37;;;;;;;13.38;8.95;;;;;;;;;;5005998;28;20049;-64
2023/12/07 00:23:03;;;;;;;13.27;8.68;;;;;;;;;;5019850;28;20760;-64
2023/12/07 00:25:29;;;;;;;14.07;9.95;;;;;;;;;;5025222;28;20052;-64
2023/12/07 00:27:56;;;;;;;18.38;10.45;;;;;;;;;;5014593;28;20140;-65
2023/12/07 00:30:22;;;;;;;14.63;9.13;;;;;;;;;;5031359;28;20112;-64
2023/12/07 00:32:48;;;;;;;14.32;9.18;;;;;;;;;;5031741;28;20048;-64
2023/12/07 00:35:15;;;;;;;15.73;9.00;;;;;;;;;;5033624;28;20132;-64
2023/12/07 00:37:41;;;;;;;15.30;9.15;;;;;;;;;;5030681;28;20083;-65
2023/12/07 00:40:07;;;;;;;13.80;8.77;;;;;;;;;;5031888;28;20045;-64
2023/12/07 00:42:37;;;;;;;14.90;9.13;;;;;;;;;;5047228;28;20102;-64
2023/12/07 00:45:04;;;;;;;12.77;8.18;;;;;;;;;;5019075;28;20032;-64
2023/12/07 00:47:30;;;;;;;14.23;8.50;;;;;;;;;;5032190;28;20121;-64
2023/12/07 00:49:56;;;;;;;14.38;8.38;;;;;;;;;;5030888;28;20040;-64
2023/12/07 00:52:22;;;;;;;13.70;8.60;;;;;;;;;;5031526;28;20045;-64
2023/12/07 00:54:48;;;;;;;10.95;7.80;;;;;;;;;;5043081;28;20038;-64
2023/12/07 00:57:14;;;;;;;12.80;8.70;;;;;;;;;;5048262;28;20507;-65
2023/12/07 00:59:40;;;;;;;12.55;8.60;;;;;;;;;;5048222;28;20063;-64
2023/12/07 01:02:07;;;;;;;13.38;9.10;;;;;;;;;;5031322;28;20037;-65
2023/12/07 01:04:34;;;;;;;14.75;8.68;;;;;;;;;;5030770;28;20045;-65
2023/12/07 01:07:00;;;;;;;14.63;9.02;;;;;;;;;;5029924;28;20095;-64
2023/12/07 01:09:26;;;;;;;13.82;8.55;;;;;;;;;;5014778;28;20049;-65
2023/12/07 01:11:53;;;;;;;12.45;8.18;;;;;;;;;;5032718;28;20037;-65
2023/12/07 01:14:19;;;;;;;13.52;7.68;;;;;;;;;;5028533;28;20059;-64
2023/12/07 01:16:46;;;;;;;12.52;7.45;;;;;;;;;;5047075;28;20558;-64
2023/12/07 01:19:15;;;;;;;14.77;8.45;;;;;;;;;;5030049;28;20045;-64
2023/12/07 01:21:41;;;;;;;11.68;8.10;;;;;;;;;;5032353;28;20489;-64
2023/12/07 01:24:08;;;;;;;13.18;8.25;;;;;;;;;;5032564;28;20053;-64
2023/12/07 01:26:34;;;;;;;18.63;8.77;;;;;;;;;;5032380;28;20045;-64
2023/12/07 01:29:00;;;;;;;14.50;9.50;;;;;;;;;;5031704;28;20056;-64
2023/12/07 01:31:26;;;;;;;19.08;9.27;;;;;;;;;;5052086;28;20048;-64
2023/12/07 01:33:52;;;;;;;18.00;9.95;;;;;;;;;;5032050;28;20435;-65
2023/12/07 01:36:19;;;;;;;16.88;10.02;;;;;;;;;;5033557;28;20079;-64
2023/12/07 01:38:45;;;;;;;19.42;9.18;;;;;;;;;;5027837;28;20048;-64
2023/12/07 01:41:11;;;;;;;16.02;9.35;;;;;;;;;;5033581;28;20056;-64
2023/12/07 01:43:37;;;;;;;17.48;9.75;;;;;;;;;;5035302;28;20071;-64
2023/12/07 01:46:03;;;;;;;14.18;8.70;;;;;;;;;;5035676;28;20051;-65
2023/12/07 01:48:30;;;;;;;16.63;9.40;;;;;;;;;;5034712;28;20052;-64
2023/12/07 01:50:57;;;;;;;13.50;8.75;;;;;;;;;;5019067;28;20033;-64
2023/12/07 01:53:24;;;;;;;14.82;8.20;;;;;;;;;;5051804;28;20144;-65
2023/12/07 01:55:51;;;;;;;15.02;8.73;;;;;;;;;;5035455;28;20052;-64
2023/12/07 01:58:18;;;;;;;12.07;7.97;;;;;;;;;;5036032;28;20504;-64
2023/12/07 02:00:44;;;;;;;13.32;8.52;;;;;;;;;;5051614;28;20037;-65
2023/12/07 02:03:10;;;;;;;12.75;8.73;;;;;;;;;;5030504;28;20048;-64
2023/12/07 02:05:37;;;;;;;13.27;8.13;;;;;;;;;;5035137;28;20388;-65
2023/12/07 02:08:04;;;;;;;12.38;7.97;;;;;;;;;;5052841;28;20048;-64
2023/12/07 02:10:30;;;;;;;16.92;8.90;;;;;;;;;;5031798;28;20444;-64
2023/12/07 02:12:57;;;;;;;19.70;8.68;;;;;;;;;;5036138;28;20162;-64
2023/12/07 02:15:23;;;;;;;14.35;8.05;;;;;;;;;;5033627;28;20051;-64
2023/12/07 02:17:55;;;;;;;12.48;7.28;;;;;;;;;;5033312;28;20055;-64
2023/12/07 02:20:21;;;;;;;13.88;7.53;;;;;;;;;;5036726;28;20124;-64
2023/12/07 02:22:50;;;;;;;12.57;7.40;;;;;;;;;;5019674;28;20127;-64
2023/12/07 02:25:19;;;;;;;13.10;7.32;;;;;;;;;;5036336;28;20443;-64
2023/12/07 02:27:45;;;;;;;11.63;8.02;;;;;;;;;;5054316;28;20045;-64
2023/12/07 02:30:12;;;;;;;12.70;7.53;;;;;;;;;;5052942;28;20099;-65
2023/12/07 02:32:39;;;;;;;11.70;8.05;;;;;;;;;;5032030;28;20113;-65
2023/12/07 02:35:06;;;;;;;13.85;7.72;;;;;;;;;;5035531;28;20091;-64
2023/12/07 02:37:37;;;;;;;15.02;8.25;;;;;;;;;;5035670;28;20049;-64
2023/12/07 02:40:04;;;;;;;13.77;7.85;;;;;;;;;;5035368;28;20049;-64
2023/12/07 02:42:32;;;;;;;10.80;7.25;;;;;;;;;;5053535;28;20057;-65
2023/12/07 02:44:59;;;;;;;13.68;6.50;;;;;;;;;;5035276;28;20128;-65
2023/12/07 02:47:25;;;;;;;12.65;7.65;;;;;;;;;;5051846;28;20441;-64
2023/12/07 02:49:51;;;;;;;10.82;6.72;;;;;;;;;;5034442;28;20048;-65
2023/12/07 02:52:17;;;;;;;14.05;7.03;;;;;;;;;;5034176;28;20052;-64
2023/12/07 02:54:43;;;;;;;14.40;7.47;;;;;;;;;;5019288;28;20037;-65
2023/12/07 02:57:09;;;;;;;12.68;7.13;;;;;;;;;;5019498;28;20041;-65
2023/12/07 02:59:36;;;;;;;11.25;7.53;;;;;;;;;;5051824;28;21850;-64
2023/12/07 03:02:02;;;;;;;13.40;6.85;;;;;;;;;;5036058;28;20087;-64
2023/12/07 03:04:28;;;;;;;11.57;7.15;;;;;;;;;;5033281;28;20044;-65
2023/12/07 03:06:54;;;;;;;13.90;6.28;;;;;;;;;;5032899;28;20048;-64
2023/12/07 03:09:20;;;;;;;9.95;6.93;;;;;;;;;;5033211;28;20045;-64
2023/12/07 03:11:46;;;;;;;11.02;7.07;;;;;;;;;;5031413;28;20175;-64
2023/12/07 03:14:13;;;;;;;9.85;6.57;;;;;;;;;;5033725;28;20148;-65
2023/12/07 03:16:39;;;;;;;10.23;6.20;;;;;;;;;;5017814;28;20049;-64
2023/12/07 03:19:05;;;;;;;12.50;7.05;;;;;;;;;;5052655;28;20053;-65
2023/12/07 03:21:31;;;;;;;11.75;6.43;;;;;;;;;;5034520;28;20059;-64
2023/12/07 03:23:58;;;;;;;9.43;6.15;;;;;;;;;;5035217;28;20155;-64
2023/12/07 03:26:24;;;;;;;9.05;6.13;;;;;;;;;;5052066;28;20515;-64
2023/12/07 03:28:50;;;;;;;14.70;7.32;;;;;;;;;;5035184;28;20492;-64
2023/12/07 03:31:16;;;;;;;10.30;6.55;;;;;;;;;;5033493;28;22139;-64
2023/12/07 03:33:42;;;;;;;15.45;6.25;;;;;;;;;;5034549;28;20123;-65
2023/12/07 03:36:11;;;;;;;10.98;7.22;;;;;;;;;;5052858;28;20037;-65
2023/12/07 03:38:38;;;;;;;9.90;6.72;;;;;;;;;;5051412;28;20049;-64
2023/12/07 03:41:04;;;;;;;11.23;6.38;;;;;;;;;;5034483;28;20123;-64
2023/12/07 03:43:30;;;;;;;10.18;7.10;;;;;;;;;;5035179;28;20163;-65
2023/12/07 03:45:56;;;;;;;13.70;7.03;;;;;;;;;;5034255;28;20120;-65
2023/12/07 03:48:23;;;;;;;13.40;6.53;;;;;;;;;;5034429;28;20499;-65
2023/12/07 03:50:49;;;;;;;10.13;6.30;;;;;;;;;;5034757;28;20514;-64
2023/12/07 03:53:15;;;;;;;10.38;6.35;;;;;;;;;;5033744;28;20480;-64
2023/12/07 03:55:41;;;;;;;10.52;6.35;;;;;;;;;;5032420;28;20569;-65
2023/12/07 03:58:08;;;;;;;11.90;7.60;;;;;;;;;;5052697;28;20048;-64
2023/12/07 04:00:34;;;;;;;13.10;7.18;;;;;;;;;;5034908;28;20053;-64
2023/12/07 04:03:00;;;;;;;15.05;7.10;;;;;;;;;;5033734;28;20496;-64
2023/12/07 04:05:26;;;;;;;10.07;6.68;;;;;;;;;;5031332;28;20048;-65
2023/12/07 04:07:52;;;;;;;15.10;7.40;;;;;;;;;;5047477;28;20044;-65
2023/12/07 04:10:18;;;;;;;10.52;7.30;;;;;;;;;;5048613;28;20180;-65
2023/12/07 04:12:44;;;;;;;17.58;6.70;;;;;;;;;;5027875;28;20044;-65
2023/12/07 04:15:11;;;;;;;10.93;6.32;;;;;;;;;;5047484;28;20215;-65
2023/12/07 04:17:37;;;;;;;14.95;6.65;;;;;;;;;;5032362;28;20148;-65
2023/12/07 04:20:03;;;;;;;10.65;6.93;;;;;;;;;;5032944;28;20091;-64
2023/12/07 04:22:32;;;;;;;11.38;6.75;;;;;;;;;;5030824;28;20131;-64
2023/12/07 04:24:58;;;;;;;12.35;7.40;;;;;;;;;;5032531;28;20315;-65
2023/12/07 04:27:25;;;;;;;15.85;7.60;;;;;;;;;;5046635;28;20036;-64
2023/12/07 04:29:51;;;;;;;10.88;7.40;;;;;;;;;;5032522;28;20124;-65
2023/12/07 04:32:17;;;;;;;12.98;8.35;;;;;;;;;;5031680;28;20505;-65
2023/12/07 04:34:44;;;;;;;12.80;8.10;;;;;;;;;;5048646;28;20440;-65
2023/12/07 04:37:10;;;;;;;12.90;8.80;;;;;;;;;;5031967;28;20079;-64
2023/12/07 04:39:37;;;;;;;14.77;8.73;;;;;;;;;;5032175;28;20033;-65
2023/12/07 04:42:03;;;;;;;14.13;9.10;;;;;;;;;;5032574;28;20060;-64
2023/12/07 04:44:29;;;;;;;18.45;9.50;;;;;;;;;;5049795;28;20041;-65
2023/12/07 04:46:55;;;;;;;15.57;9.70;;;;;;;;;;5050526;28;20047;-65
2023/12/07 04:49:22;;;;;;;15.82;9.05;;;;;;;;;;5049113;28;20045;-65
2023/12/07 04:51:48;;;;;;;17.08;9.55;;;;;;;;;;5048302;28;20048;-65
2023/12/07 04:54:17;;;;;;;16.85;9.75;;;;;;;;;;5031087;28;20142;-64
2023/12/07 04:56:43;;;;;;;15.27;9.13;;;;;;;;;;5048653;28;20465;-65
2023/12/07 04:59:10;;;;;;;15.88;9.65;;;;;;;;;;5046483;28;20143;-65
2023/12/07 05:01:39;;;;;;;19.00;10.35;;;;;;;;;;5031769;28;20128;-65
2023/12/07 05:04:05;;;;;;;16.73;9.93;;;;;;;;;;5046636;28;20040;-64
2023/12/07 05:06:32;;;;;;;17.15;9.90;;;;;;;;;;5029475;28;20053;-65
2023/12/07 05:08:58;;;;;;;22.38;10.85;;;;;;;;;;5030838;28;20231;-65
2023/12/07 05:11:24;;;;;;;17.92;9.75;;;;;;;;;;5045939;28;20048;-64
2023/12/07 05:13:51;;;;;;;16.02;10.23;;;;;;;;;;5024064;28;20480;-64
2023/12/07 05:16:17;;;;;;;16.67;10.05;;;;;;;;;;5025601;28;20060;-64
2023/12/07 05:18:44;;;;;;;18.33;11.02;;;;;;;;;;5029326;28;20481;-64
2023/12/07 05:21:10;;;;;;;21.52;12.30;;;;;;;;;;5031710;28;20384;-64
2023/12/07 05:23:36;;;;;;;18.60;10.02;;;;;;;;;;5032358;28;20132;-65
2023/12/07 05:26:02;;;;;;;18.33;11.10;;;;;;;;;;5028294;28;20033;-65
2023/12/07 05:28:29;;;;;;;17.75;10.30;;;;;;;;;;5030367;28;20060;-65
2023/12/07 05:30:57;;;;;;;20.02;11.65;;;;;;;;;;5032680;28;20124;-65
2023/12/07 05:33:23;;;;;;;19.55;11.05;;;;;;;;;;5031697;28;20106;-65
2023/12/07 05:35:49;;;;;;;19.60;10.70;;;;;;;;;;5047459;28;20053;-65
2023/12/07 05:38:15;;;;;;;18.67;11.13;;;;;;;;;;5048981;28;20045;-65
2023/12/07 05:40:41;;;;;;;22.13;11.60;;;;;;;;;;5029328;28;20045;-64
2023/12/07 05:43:08;;;;;;;19.13;11.40;;;;;;;;;;5030879;28;20416;-64
2023/12/07 05:45:34;;;;;;;19.77;10.77;;;;;;;;;;5033487;28;20041;-64
2023/12/07 05:48:00;;;;;;;17.80;11.15;;;;;;;;;;5030646;28;20053;-65
2023/12/07 05:50:26;;;;;;;20.77;11.43;;;;;;;;;;5029057;28;20155;-65
2023/12/07 05:52:53;;;;;;;19.20;10.60;;;;;;;;;;5013224;28;20569;-65
2023/12/07 05:55:19;;;;;;;20.85;11.32;;;;;;;;;;5049360;28;20399;-64
2023/12/07 05:57:48;;;;;;;20.95;11.73;;;;;;;;;;5033510;28;20446;-64
2023/12/07 06:00:16;;;;;;;18.38;10.52;;;;;;;;;;5050771;28;20039;-67
2023/12/07 06:02:42;;;;;;;16.77;10.25;;;;;;;;;;5033045;28;20044;-64
2023/12/07 06:05:09;;;;;;;14.90;9.73;;;;;;;;;;5028692;28;20396;-65
2023/12/07 06:07:35;;;;;;;16.55;9.70;;;;;;;;;;5042912;28;20551;-64
2023/12/07 06:10:01;;;;;;;22.45;10.57;;;;;;;;;;5047565;28;20095;-65
2023/12/07 06:12:27;;;;;;;18.42;11.00;;;;;;;;;;5046726;28;20053;-65
2023/12/07 06:14:54;;;;;;;20.17;11.23;;;;;;;;;;5028432;28;20086;-65
2023/12/07 06:17:21;;;;;;;17.85;10.95;;;;;;;;;;5020153;28;20106;-65
2023/12/07 06:19:47;;;;;;;17.88;10.82;;;;;;;;;;5035741;28;20123;-65
2023/12/07 06:22:13;;;;;;;21.77;11.25;;;;;;;;;;5053883;28;20045;-65
2023/12/07 06:24:41;;;;;;;18.83;11.18;;;;;;;;;;5037094;28;20119;-65
2023/12/07 06:27:07;;;;;;;27.45;12.82;;;;;;;;;;5053807;28;20198;-65
2023/12/07 06:29:33;;;;;;;19.92;11.82;;;;;;;;;;5035809;28;20072;-65
2023/12/07 06:32:00;;;;;;;24.70;13.48;;;;;;;;;;5054673;28;20041;-65
2023/12/07 06:34:28;;;;;;;20.75;12.02;;;;;;;;;;5053166;28;20227;-65
2023/12/07 06:36:54;;;;;;;24.08;12.50;;;;;;;;;;5034865;28;20052;-65
2023/12/07 06:39:20;;;;;;;24.25;13.18;;;;;;;;;;5053935;28;20057;-65
2023/12/07 06:41:46;;;;;;;23.38;13.05;;;;;;;;;;5035102;28;20044;-65
2023/12/07 06:44:12;;;;;;;27.83;13.50;;;;;;;;;;5048768;28;20049;-65
2023/12/07 06:46:39;;;;;;;23.20;13.60;;;;;;;;;;5033492;28;20041;-65
2023/12/07 06:49:05;;;;;;;20.20;12.43;;;;;;;;;;5049039;28;20467;-65
2023/12/07 06:51:31;;;;;;;25.45;14.35;;;;;;;;;;5048993;28;20086;-65
2023/12/07 06:53:58;;;;;;;25.23;13.82;;;;;;;;;;5033577;28;20476;-65
2023/12/07 06:56:25;;;;;;;30.88;13.77;;;;;;;;;;5053256;28;20430;-65
2023/12/07 06:58:51;;;;;;;29.83;14.50;;;;;;;;;;5053116;28;20045;-64
2023/12/07 07:01:17;;;;;;;24.08;13.77;;;;;;;;;;5053956;28;20485;-64
2023/12/07 07:03:43;;;;;;;28.58;14.27;;;;;;;;;;5053123;28;20049;-64
2023/12/07 07:06:09;;;;;;;27.25;13.98;;;;;;;;;;5052666;28;20052;-65
2023/12/07 07:08:36;;;;;;;22.08;13.25;;;;;;;;;;5053750;28;20048;-64
2023/12/07 07:11:03;;;;;;;31.70;13.15;;;;;;;;;;5034815;28;20047;-64
2023/12/07 07:13:29;;;;;;;26.27;13.68;;;;;;;;;;5030133;28;20052;-64
2023/12/07 07:15:55;;;;;;;30.13;14.55;;;;;;;;;;5035873;28;20377;-64
2023/12/07 07:18:23;;;;;;;23.23;13.73;;;;;;;;;;5052710;28;20395;-64
2023/12/07 07:20:50;;;;;;;27.00;14.23;;;;;;;;;;5034782;28;20052;-65
2023/12/07 07:23:16;;;;;;;29.27;14.80;;;;;;;;;;5035513;28;20053;-64
2023/12/07 07:25:42;;;;;;;29.17;13.75;;;;;;;;;;5034402;28;20123;-64
2023/12/07 07:28:08;;;;;;;29.08;15.48;;;;;;;;;;5052314;28;20045;-64
2023/12/07 07:30:35;;;;;;;30.10;14.63;;;;;;;;;;5034710;28;20511;-64
2023/12/07 07:33:01;;;;;;;33.63;15.65;;;;;;;;;;5048202;28;20049;-64
2023/12/07 07:35:27;;;;;;;33.83;18.02;;;;;;;;;;5033457;28;20565;-64
2023/12/07 07:37:54;;;;;;;32.50;16.20;;;;;;;;;;5053134;28;20041;-64
2023/12/07 07:40:20;;;;;;;28.90;15.75;;;;;;;;;;5050843;28;20041;-65
2023/12/07 07:42:46;;;;;;;32.05;16.77;;;;;;;;;;5052047;28;20448;-64
2023/12/07 07:45:12;;;;;;;34.33;16.75;;;;;;;;;;5035467;28;20048;-64
2023/12/07 07:47:38;;;;;;;32.65;17.40;;;;;;;;;;5033623;28;20080;-64
2023/12/07 07:50:05;;;;;;;34.22;18.13;;;;;;;;;;5048958;28;20547;-64
2023/12/07 07:52:33;;;;;;;35.08;17.60;;;;;;;;;;5035184;28;20054;-64
2023/12/07 07:55:00;;;;;;;32.42;17.67;;;;;;;;;;5017591;28;20171;-64
2023/12/07 07:57:26;;;;;;;37.97;17.67;;;;;;;;;;5052305;28;20095;-64
2023/12/07 07:59:52;;;;;;;36.67;17.33;;;;;;;;;;5031268;28;20056;-67
2023/12/07 08:02:18;;;;;;;34.55;17.58;;;;;;;;;;5046411;28;20084;-65
2023/12/07 08:04:44;;;;;;;35.25;17.35;;;;;;;;;;5047229;28;20037;-64
2023/12/07 08:07:11;;;;;;;34.22;17.05;;;;;;;;;;5048376;28;20048;-64
2023/12/07 08:09:37;;;;;;;37.05;18.35;;;;;;;;;;5044329;28;20052;-64
2023/12/07 08:12:03;;;;;;;37.53;18.73;;;;;;;;;;5038200;28;20049;-64
2023/12/07 08:14:29;;;;;;;35.22;18.63;;;;;;;;;;5039305;28;20053;-64
2023/12/07 08:16:56;;;;;;;35.75;17.02;;;;;;;;;;5017463;28;20045;-64
2023/12/07 08:19:22;;;;;;;33.40;17.65;;;;;;;;;;5052139;28;20049;-64
2023/12/07 08:21:48;;;;;;;37.17;19.05;;;;;;;;;;5030393;28;20053;-64
2023/12/07 08:24:15;;;;;;;34.17;19.05;;;;;;;;;;5032394;28;20044;-64
2023/12/07 08:26:42;;;;;;;36.45;18.65;;;;;;;;;;5051397;28;20095;-63
2023/12/07 08:29:08;;;;;;;33.30;18.13;;;;;;;;;;5033692;28;20052;-63
2023/12/07 08:31:34;;;;;;;41.15;18.65;;;;;;;;;;5034254;28;20040;-63
2023/12/07 08:34:00;;;;;;;39.38;19.27;;;;;;;;;;5034347;28;20053;-63
2023/12/07 08:36:27;;;;;;;44.78;19.90;;;;;;;;;;5051101;28;20102;-63
2023/12/07 08:38:54;;;;;;;36.38;19.20;;;;;;;;;;5033061;28;20157;-63
2023/12/07 08:41:20;;;;;;;40.20;18.63;;;;;;;;;;5034194;28;20503;-63
2023/12/07 08:43:46;;;;;;;40.92;19.58;;;;;;;;;;5051322;28;20044;-63
2023/12/07 08:46:12;;;;;;;43.05;21.48;;;;;;;;;;5034304;28;20062;-63
2023/12/07 08:48:38;;;;;;;40.30;20.38;;;;;;;;;;5033963;28;20064;-63
2023/12/07 08:51:05;;;;;;;40.10;20.15;;;;;;;;;;5050966;28;20056;-63
2023/12/07 08:53:31;;;;;;;44.95;21.80;;;;;;;;;;5032218;28;20048;-63
2023/12/07 08:55:57;;;;;;;40.30;20.88;;;;;;;;;;5033979;28;20071;-63
2023/12/07 08:58:23;;;;;;;46.78;24.77;;;;;;;;;;5050899;28;20052;-63
2023/12/07 09:00:50;;;;;;;51.97;24.23;;;;;;;;;;5034168;28;20099;-63
2023/12/07 09:03:16;;;;;;;50.25;23.00;;;;;;;;;;5050941;28;20397;-63
2023/12/07 09:05:43;;;;;;;48.13;23.75;;;;;;;;;;5049820;28;20510;-64
2023/12/07 09:08:10;;;;;;;47.50;25.30;;;;;;;;;;5031300;28;20354;-63
2023/12/07 09:10:36;;;;;;;48.85;25.05;;;;;;;;;;5032553;28;20049;-68
2023/12/07 09:13:02;;;;;;;51.30;24.75;;;;;;;;;;5016838;28;20043;-63
2023/12/07 09:15:28;;;;;;;46.75;24.75;;;;;;;;;;5032788;28;20049;-63
2023/12/07 09:17:55;;;;;;;49.03;25.60;;;;;;;;;;5049984;28;20540;-63
2023/12/07 09:20:21;;;;;;;57.22;27.17;;;;;;;;;;5031695;28;20051;-63
2023/12/07 09:22:48;;;;;;;59.53;28.23;;;;;;;;;;5033523;28;20049;-63
2023/12/07 09:25:17;;;;;;;57.80;28.63;;;;;;;;;;5050886;28;20443;-63
2023/12/07 09:27:43;;;;;;;57.58;28.00;;;;;;;;;;5033759;28;20401;-63
2023/12/07 09:30:10;;;;;;;60.80;28.02;;;;;;;;;;5051576;28;20045;-63
2023/12/07 09:32:40;;;;;;;62.45;30.73;;;;;;;;;;5032042;28;20257;-63
2023/12/07 09:35:07;;;;;;;64.22;31.17;;;;;;;;;;5033934;28;20106;-63
2023/12/07 09:37:34;;;;;;;65.90;32.40;;;;;;;;;;5033756;28;20061;-63
2023/12/07 09:40:01;;;;;;;61.67;31.35;;;;;;;;;;5050851;28;20041;-63
2023/12/07 09:42:27;;;;;;;57.38;31.13;;;;;;;;;;5033604;28;20403;-63
2023/12/07 09:44:54;;;;;;;68.78;33.20;;;;;;;;;;5051287;28;20037;-63
2023/12/07 09:47:21;;;;;;;59.97;29.73;;;;;;;;;;5032254;28;20053;-64
2023/12/07 09:49:47;;;;;;;56.03;28.85;;;;;;;;;;5032877;28;20052;-63
2023/12/07 09:52:14;;;;;;;56.13;29.23;;;;;;;;;;5037253;28;20041;-63
2023/12/07 09:54:43;;;;;;;57.90;28.73;;;;;;;;;;5053756;28;20147;-63
2023/12/07 09:57:09;;;;;;;48.95;27.60;;;;;;;;;;5037215;28;20084;-63
2023/12/07 09:59:36;;;;;;;52.58;28.30;;;;;;;;;;5036330;28;20052;-63
2023/12/07 10:02:02;;;;;;;57.03;27.70;;;;;;;;;;5041159;28;20354;-63
2023/12/07 10:04:29;;;;;;;52.97;27.05;;;;;;;;;;5054330;28;20116;-63
2023/12/07 10:06:57;;;;;;;52.22;27.40;;;;;;;;;;5036439;28;20049;-64
2023/12/07 10:09:24;;;;;;;48.38;26.75;;;;;;;;;;5054986;28;20045;-63
2023/12/07 10:11:50;;;;;;;52.97;27.05;;;;;;;;;;5037088;28;20151;-63
2023/12/07 10:14:16;;;;;;;51.53;26.98;;;;;;;;;;5053979;28;20037;-63
2023/12/07 10:16:56;;;;;;;50.67;27.05;;;;;;;;;;5037019;28;20045;-63
2023/12/07 10:19:22;;;;;;;53.63;27.85;;;;;;;;;;5031353;28;20083;-63
2023/12/07 10:21:50;;;;;;;49.60;26.23;;;;;;;;;;5034062;28;20124;-64
2023/12/07 10:24:20;;;;;;;43.40;25.13;;;;;;;;;;5034018;28;20080;-64
2023/12/07 10:26:46;;;;;;;46.63;25.83;;;;;;;;;;5033378;28;20501;-64
2023/12/07 10:29:13;;;;;;;46.40;25.17;;;;;;;;;;5032813;28;20037;-72
2023/12/07 10:31:39;;;;;;;41.47;24.80;;;;;;;;;;5016130;28;20474;-65
2023/12/07 10:34:05;;;;;;;38.38;23.75;;;;;;;;;;5015869;28;20087;-65
2023/12/07 10:36:32;;;;;;;40.05;24.35;;;;;;;;;;5033824;28;20061;-65
2023/12/07 10:38:58;;;;;;;43.55;25.05;;;;;;;;;;5032131;28;20053;-65
2023/12/07 10:41:25;;;;;;;37.20;23.35;;;;;;;;;;5016321;28;20465;-65
2023/12/07 10:44:12;;;;;;;42.53;23.90;;;;;;;;;;5029462;28;20049;-65
2023/12/07 10:46:41;;;;;;;35.70;23.48;;;;;;;;;;5033057;28;20108;-65
2023/12/07 10:49:08;;;;;;;36.22;23.48;;;;;;;;;;5030277;28;20080;-65
2023/12/07 10:51:53;;;;;;;39.47;23.60;;;;;;;;;;5033066;28;20731;-65
2023/12/07 10:54:23;;;;;;;37.65;23.00;;;;;;;;;;5032924;28;20077;-65
2023/12/07 10:56:50;;;;;;;39.28;22.45;;;;;;;;;;5033614;28;20091;-65
2023/12/07 10:59:17;;;;;;;37.75;23.13;;;;;;;;;;5032287;28;20489;-67
2023/12/07 11:01:43;;;;;;;40.10;23.30;;;;;;;;;;5033648;28;20049;-63
2023/12/07 11:04:14;;;;;;;34.70;22.70;;;;;;;;;;5032481;28;20407;-63
2023/12/07 11:06:40;;;;;;;40.00;23.08;;;;;;;;;;5033860;28;20485;-64
2023/12/07 11:09:13;;;;;;;33.55;22.40;;;;;;;;;;5032623;28;20497;-66
2023/12/07 11:11:42;;;;;;;35.13;22.30;;;;;;;;;;5031751;28;20528;-65
2023/12/07 11:14:12;;;;;;;35.85;21.77;;;;;;;;;;5033731;28;20124;-66
2023/12/07 11:16:43;;;;;;;32.85;21.75;;;;;;;;;;5030181;28;20041;-66
2023/12/07 11:19:28;;;;;;;34.92;22.17;;;;;;;;;;5031718;28;20057;-66
2023/12/07 11:21:54;;;;;;;35.08;21.45;;;;;;;;;;5032901;28;20098;-65
2023/12/07 11:24:20;;;;;;;35.35;22.60;;;;;;;;;;5032500;28;20049;-66
2023/12/07 11:26:47;;;;;;;35.20;21.73;;;;;;;;;;5032576;28;20037;-66
2023/12/07 11:29:13;;;;;;;34.10;21.60;;;;;;;;;;5033421;28;20095;-66
2023/12/07 11:31:39;;;;;;;34.50;21.90;;;;;;;;;;5030795;28;20124;-66
2023/12/07 11:34:13;;;;;;;31.85;19.38;;;;;;;;;;5031800;28;20134;-66
2023/12/07 11:36:39;;;;;;;;;;;;;;;;;;5032810;28;20053;-66
2023/12/07 11:39:11;;;;;;;28.27;18.42;;;;;;;;;;5031515;28;20288;-66
2023/12/07 11:41:44;;;;;;;28.95;19.00;;;;;;;;;;5033199;28;20041;-66
2023/12/07 11:44:11;;;;;;;32.35;18.83;;;;;;;;;;5032136;28;20053;-67
2023/12/07 11:46:38;;;;;;;29.00;17.92;;;;;;;;;;5029689;28;20722;-67
2023/12/07 11:49:08;;;;;;;28.38;17.23;;;;;;;;;;5033322;28;20049;-66
2023/12/07 11:51:34;;;;;;;28.45;17.42;;;;;;;;;;5031853;28;20050;-67
2023/12/07 11:54:00;;;;;;;24.35;16.48;;;;;;;;;;5031732;28;20041;-66
2023/12/07 11:56:26;;;;;;;31.80;17.52;;;;;;;;;;5031839;28;20382;-66
2023/12/07 11:58:52;;;;;;;24.70;17.88;;;;;;;;;;5031646;28;20397;-66
2023/12/07 12:01:19;;;;;;;31.95;18.48;;;;;;;;;;5030810;28;20064;-66
2023/12/07 12:03:45;;;;;;;31.20;18.95;;;;;;;;;;5030696;28;20041;-66
2023/12/07 12:06:11;;;;;;;30.00;19.77;;;;;;;;;;5029903;28;20045;-65
2023/12/07 12:08:38;;;;;;;27.73;17.55;;;;;;;;;;5029330;28;20052;-65
2023/12/07 12:11:04;;;;;;;28.65;18.10;;;;;;;;;;5012080;28;20385;-65
2023/12/07 12:13:34;;;;;;;30.15;17.85;;;;;;;;;;5043043;28;20091;-65
2023/12/07 12:16:00;;;;;;;32.28;17.27;;;;;;;;;;5031174;28;20052;-65
2023/12/07 12:18:27;;;;;;;26.40;17.45;;;;;;;;;;5043831;28;20465;-65
2023/12/07 12:20:53;;;;;;;30.77;18.80;;;;;;;;;;5033896;28;20504;-65
2023/12/07 12:23:20;;;;;;;29.13;19.80;;;;;;;;;;5051566;28;20511;-65
2023/12/07 12:25:46;;;;;;;26.75;18.10;;;;;;;;;;5018080;28;20124;-66
2023/12/07 12:28:14;;;;;;;31.77;21.10;;;;;;;;;;5033879;28;20044;-65
2023/12/07 12:30:42;;;;;;;27.45;18.45;;;;;;;;;;5052578;28;20064;-67
2023/12/07 12:33:08;;;;;;;28.20;18.92;;;;;;;;;;5033337;28;20059;-65
2023/12/07 12:35:34;;;;;;;29.95;19.20;;;;;;;;;;5051215;28;20507;-66
2023/12/07 12:38:00;;;;;;;31.52;20.98;;;;;;;;;;5033293;28;20037;-66
2023/12/07 12:40:29;;;;;;;30.70;20.35;;;;;;;;;;5034327;28;20107;-66
2023/12/07 12:42:55;;;;;;;35.97;20.70;;;;;;;;;;5032644;28;20059;-65
2023/12/07 12:45:22;;;;;;;28.20;20.88;;;;;;;;;;5052238;28;20467;-65
2023/12/07 12:47:48;;;;;;;29.67;21.30;;;;;;;;;;5051355;28;20061;-65
2023/12/07 12:50:33;;;;;;;26.95;19.30;;;;;;;;;;5051245;28;20120;-65
2023/12/07 12:53:01;;;;;;;27.77;19.15;;;;;;;;;;5051642;28;20400;-66
2023/12/07 12:55:28;;;;;;;28.33;19.85;;;;;;;;;;5015974;28;20114;-65
2023/12/07 12:57:56;;;;;;;28.77;19.83;;;;;;;;;;5051823;28;20080;-65
2023/12/07 13:00:22;;;;;;;28.55;18.92;;;;;;;;;;5034125;28;20435;-66
2023/12/07 13:02:49;;;;;;;28.75;19.23;;;;;;;;;;5050945;28;20519;-65
2023/12/07 13:05:15;;;;;;;26.77;18.48;;;;;;;;;;5033578;28;20045;-66
2023/12/07 13:07:41;;;;;;;27.42;18.50;;;;;;;;;;5050038;28;20094;-65
2023/12/07 13:10:08;;;;;;;30.02;18.75;;;;;;;;;;5050738;28;20484;-66
2023/12/07 13:12:35;;;;;;;31.05;18.67;;;;;;;;;;5051652;28;20141;-65
2023/12/07 13:15:01;;;;;;;30.77;19.02;;;;;;;;;;5033924;28;20059;-65
2023/12/07 13:17:27;;;;;;;32.85;20.75;;;;;;;;;;5032905;28;20408;-65
2023/12/07 13:19:54;;;;;;;30.00;19.65;;;;;;;;;;5051009;28;20045;-65
2023/12/07 13:22:20;;;;;;;36.85;18.60;;;;;;;;;;5051391;28;20060;-65
2023/12/07 13:24:49;;;;;;;37.03;19.80;;;;;;;;;;5033012;28;20110;-65
2023/12/07 13:27:16;;;;;;;35.75;19.95;;;;;;;;;;5036685;28;20143;-65
2023/12/07 13:29:42;;;;;;;37.53;21.08;;;;;;;;;;5035492;28;20053;-66
2023/12/07 13:32:09;;;;;;;42.08;21.80;;;;;;;;;;5053876;28;20164;-66
2023/12/07 13:34:36;;;;;;;31.33;20.23;;;;;;;;;;5054890;28;20040;-65
2023/12/07 13:37:02;;;;;;;42.55;22.55;;;;;;;;;;5043260;28;20056;-65
2023/12/07 13:39:29;;;;;;;43.75;22.92;;;;;;;;;;5023265;28;20042;-65
2023/12/07 13:41:56;;;;;;;54.03;21.90;;;;;;;;;;5037489;28;20043;-65
2023/12/07 13:44:24;;;;;;;43.72;22.23;;;;;;;;;;5036088;28;20370;-66
2023/12/07 13:46:50;;;;;;;72.15;21.70;;;;;;;;;;5051744;28;21484;-66
2023/12/07 13:49:16;;;;;;;83.78;23.05;;;;;;;;;;5035397;28;20045;-66
2023/12/07 13:51:42;;;;;;;55.13;22.27;;;;;;;;;;5054258;28;20450;-66
2023/12/07 13:54:09;;;;;;;53.63;23.67;;;;;;;;;;5016435;28;20068;-65
2023/12/07 13:56:35;;;;;;;69.43;22.75;;;;;;;;;;5037129;28;20071;-65
2023/12/07 13:59:02;;;;;;;65.90;22.75;;;;;;;;;;5020259;28;20039;-65
2023/12/07 14:01:28;;;;;;;54.25;22.10;;;;;;;;;;5020497;28;20048;-65
2023/12/07 14:03:55;;;;;;;48.67;22.20;;;;;;;;;;5033471;28;20053;-66
2023/12/07 14:06:23;;;;;;;39.03;20.75;;;;;;;;;;5015172;28;20124;-66
2023/12/07 14:08:49;;;;;;;48.90;23.08;;;;;;;;;;5053221;28;20123;-66
2023/12/07 14:11:16;;;;;;;44.47;22.40;;;;;;;;;;5054169;28;20068;-66
2023/12/07 14:13:42;;;;;;;43.45;23.00;;;;;;;;;;5053832;28;20045;-66
2023/12/07 14:16:09;;;;;;;45.05;22.52;;;;;;;;;;5034597;28;20115;-66
2023/12/07 14:18:35;;;;;;;52.45;22.73;;;;;;;;;;5032566;28;20058;-66